sensor_id;sensor_type;location;lat;lon;timestamp;temperature;humidity
29173;DHT22;16223;47.966;-1.616;2023-02-28T00:00:33;0.5;81
29173;DHT22;16223;47.966;-1.616;2023-02-28T00:01:34;0.5;81
29173;DHT22;16223;47.966;-1.616;2023-02-28T00:02:34;0.5;81
29173;DHT22;16223;47.966;-1.616;2023-02-28T00:03:34;0.1;81
29173;DHT22;16223;47.966;-1.616;2023-02-28T00:04:34;0.1;81
29173;DHT22;16223;47.966;-1.616;2023-02-28T00:05:34;0.1;81
29173;DHT22;16223;47.966;-1.616;2023-02-28T00:06:34;0.1;81
29173;DHT22;16223;47.966;-1.616;2023-02-28T00:07:33;0.1;81
29173;DHT22;16223;47.966;-1.616;2023-02-28T00:08:34;0.1;81
29173;DHT22;16223;47.966;-1.616;2023-02-28T00:09:34;0.1;81
29173;DHT22;16223;47.966;-1.616;2023-02-28T00:10:34;0.1;81
29173;DHT22;16223;47.966;-1.616;2023-02-28T00:11:33;0.1;81
29173;DHT22;16223;47.966;-1.616;2023-02-28T00:12:35;0.1;81
29173;DHT22;16223;47.966;-1.616;2023-02-28T00:13:36;0.1;81
29173;DHT22;16223;47.966;-1.616;2023-02-28T00:14:34;0.1;81
29173;DHT22;16223;47.966;-1.616;2023-02-28T00:15:34;0.1;81
29173;DHT22;16223;47.966;-1.616;2023-02-28T00:16:33;0.1;81
29173;DHT22;16223;47.966;-1.616;2023-02-28T00:17:34;0.1;81
29173;DHT22;16223;47.966;-1.616;2023-02-28T00:18:33;0.1;81
29173;DHT22;16223;47.966;-1.616;2023-02-28T00:19:34;0.1;81
29173;DHT22;16223;47.966;-1.616;2023-02-28T00:20:34;0.1;81
29173;DHT22;16223;47.966;-1.616;2023-02-28T00:21:34;0.1;81
29173;DHT22;16223;47.966;-1.616;2023-02-28T00:22:34;0.1;81
29173;DHT22;16223;47.966;-1.616;2023-02-28T00:23:33;0.1;81
29173;DHT22;16223;47.966;-1.616;2023-02-28T00:24:34;0.1;81
29173;DHT22;16223;47.966;-1.616;2023-02-28T00:25:34;0.1;81
29173;DHT22;16223;47.966;-1.616;2023-02-28T00:26:34;0.1;81
29173;DHT22;16223;47.966;-1.616;2023-02-28T00:27:35;0.1;81
29173;DHT22;16223;47.966;-1.616;2023-02-28T00:28:34;0.1;81
29173;DHT22;16223;47.966;-1.616;2023-02-28T00:29:34;0.1;81
29173;DHT22;16223;47.966;-1.616;2023-02-28T00:30:34;0.1;81
29173;DHT22;16223;47.966;-1.616;2023-02-28T00:31:34;0.1;81
29173;DHT22;16223;47.966;-1.616;2023-02-28T00:32:35;0.1;81
29173;DHT22;16223;47.966;-1.616;2023-02-28T00:33:34;0.1;81
29173;DHT22;16223;47.966;-1.616;2023-02-28T00:34:36;-0.1;82
29173;DHT22;16223;47.966;-1.616;2023-02-28T00:35:34;-0.1;82
29173;DHT22;16223;47.966;-1.616;2023-02-28T00:36:35;-0.1;82
29173;DHT22;16223;47.966;-1.616;2023-02-28T00:37:35;-0.1;82
29173;DHT22;16223;47.966;-1.616;2023-02-28T00:38:34;-0.1;82
29173;DHT22;16223;47.966;-1.616;2023-02-28T00:39:36;-0.1;82
29173;DHT22;16223;47.966;-1.616;2023-02-28T00:40:35;-0.1;82
29173;DHT22;16223;47.966;-1.616;2023-02-28T00:41:34;-0.1;82
29173;DHT22;16223;47.966;-1.616;2023-02-28T00:42:34;-0.1;82
29173;DHT22;16223;47.966;-1.616;2023-02-28T00:43:35;-0.1;82
29173;DHT22;16223;47.966;-1.616;2023-02-28T00:44:34;-0.1;82
29173;DHT22;16223;47.966;-1.616;2023-02-28T00:45:35;-0.1;82
29173;DHT22;16223;47.966;-1.616;2023-02-28T00:46:34;-0.1;82
29173;DHT22;16223;47.966;-1.616;2023-02-28T00:47:34;-0.1;82
29173;DHT22;16223;47.966;-1.616;2023-02-28T00:48:34;-0.1;82
29173;DHT22;16223;47.966;-1.616;2023-02-28T00:49:33;-0.1;82
29173;DHT22;16223;47.966;-1.616;2023-02-28T00:50:34;-0.1;82
29173;DHT22;16223;47.966;-1.616;2023-02-28T00:51:33;-0.4;83
29173;DHT22;16223;47.966;-1.616;2023-02-28T00:52:33;-0.4;83
29173;DHT22;16223;47.966;-1.616;2023-02-28T00:53:34;-0.4;83
29173;DHT22;16223;47.966;-1.616;2023-02-28T00:54:34;-0.4;83
29173;DHT22;16223;47.966;-1.616;2023-02-28T00:55:34;-0.4;83
29173;DHT22;16223;47.966;-1.616;2023-02-28T00:56:34;-0.4;83
29173;DHT22;16223;47.966;-1.616;2023-02-28T00:57:34;-0.4;83
29173;DHT22;16223;47.966;-1.616;2023-02-28T00:58:34;-0.4;83
29173;DHT22;16223;47.966;-1.616;2023-02-28T00:59:34;-0.4;83
29173;DHT22;16223;47.966;-1.616;2023-02-28T01:00:34;-0.4;83
29173;DHT22;16223;47.966;-1.616;2023-02-28T01:01:34;-0.4;83
29173;DHT22;16223;47.966;-1.616;2023-02-28T01:02:34;-0.4;83
29173;DHT22;16223;47.966;-1.616;2023-02-28T01:03:34;-0.4;83
29173;DHT22;16223;47.966;-1.616;2023-02-28T01:04:34;-0.4;83
29173;DHT22;16223;47.966;-1.616;2023-02-28T01:05:34;-0.4;83
29173;DHT22;16223;47.966;-1.616;2023-02-28T01:06:34;-0.4;83
29173;DHT22;16223;47.966;-1.616;2023-02-28T01:07:33;-0.4;83
29173;DHT22;16223;47.966;-1.616;2023-02-28T01:08:33;-0.4;83
29173;DHT22;16223;47.966;-1.616;2023-02-28T01:09:34;-0.4;83
29173;DHT22;16223;47.966;-1.616;2023-02-28T01:10:34;-0.4;83
29173;DHT22;16223;47.966;-1.616;2023-02-28T01:11:34;-0.4;83
29173;DHT22;16223;47.966;-1.616;2023-02-28T01:12:33;-0.4;83
29173;DHT22;16223;47.966;-1.616;2023-02-28T01:13:34;-0.4;83
29173;DHT22;16223;47.966;-1.616;2023-02-28T01:14:34;-0.4;83
29173;DHT22;16223;47.966;-1.616;2023-02-28T01:15:34;-0.4;83
29173;DHT22;16223;47.966;-1.616;2023-02-28T01:16:34;-0.4;83
29173;DHT22;16223;47.966;-1.616;2023-02-28T01:17:34;-0.4;83
29173;DHT22;16223;47.966;-1.616;2023-02-28T01:18:35;-0.4;83
29173;DHT22;16223;47.966;-1.616;2023-02-28T01:19:34;-0.4;83
29173;DHT22;16223;47.966;-1.616;2023-02-28T01:20:35;-0.4;83
29173;DHT22;16223;47.966;-1.616;2023-02-28T01:21:34;-0.4;83
29173;DHT22;16223;47.966;-1.616;2023-02-28T01:22:34;-0.4;83
29173;DHT22;16223;47.966;-1.616;2023-02-28T01:23:34;-0.4;83
29173;DHT22;16223;47.966;-1.616;2023-02-28T01:24:34;-0.4;83
29173;DHT22;16223;47.966;-1.616;2023-02-28T01:25:36;-0.3;83
29173;DHT22;16223;47.966;-1.616;2023-02-28T01:26:34;-0.3;83
29173;DHT22;16223;47.966;-1.616;2023-02-28T01:27:35;-0.3;83
29173;DHT22;16223;47.966;-1.616;2023-02-28T01:28:33;-0.3;83
29173;DHT22;16223;47.966;-1.616;2023-02-28T01:29:33;-0.3;83
29173;DHT22;16223;47.966;-1.616;2023-02-28T01:30:34;-0.3;83
29173;DHT22;16223;47.966;-1.616;2023-02-28T01:31:33;-0.3;83
29173;DHT22;16223;47.966;-1.616;2023-02-28T01:32:34;-0.3;83
29173;DHT22;16223;47.966;-1.616;2023-02-28T01:33:33;-0.3;83
29173;DHT22;16223;47.966;-1.616;2023-02-28T01:34:34;-0.3;83
29173;DHT22;16223;47.966;-1.616;2023-02-28T01:35:34;-0.3;83
29173;DHT22;16223;47.966;-1.616;2023-02-28T01:36:34;-0.3;83
29173;DHT22;16223;47.966;-1.616;2023-02-28T01:37:34;-0.3;83
29173;DHT22;16223;47.966;-1.616;2023-02-28T01:38:34;-0.3;83
29173;DHT22;16223;47.966;-1.616;2023-02-28T01:39:34;-0.3;83
29173;DHT22;16223;47.966;-1.616;2023-02-28T01:40:34;-0.3;83
29173;DHT22;16223;47.966;-1.616;2023-02-28T01:41:35;-0.3;83
29173;DHT22;16223;47.966;-1.616;2023-02-28T01:42:34;-0.3;83
29173;DHT22;16223;47.966;-1.616;2023-02-28T01:43:52;-0.3;83
29173;DHT22;16223;47.966;-1.616;2023-02-28T01:45:19;-0.3;83
29173;DHT22;16223;47.966;-1.616;2023-02-28T01:45:37;-0.3;83
29173;DHT22;16223;47.966;-1.616;2023-02-28T01:46:36;-0.3;83
29173;DHT22;16223;47.966;-1.616;2023-02-28T01:47:38;-0.3;83
29173;DHT22;16223;47.966;-1.616;2023-02-28T01:48:36;-0.3;83
29173;DHT22;16223;47.966;-1.616;2023-02-28T01:49:35;-0.3;83
29173;DHT22;16223;47.966;-1.616;2023-02-28T01:50:39;-0.3;83
29173;DHT22;16223;47.966;-1.616;2023-02-28T01:51:37;-0.3;83
29173;DHT22;16223;47.966;-1.616;2023-02-28T01:52:34;-0.3;83
29173;DHT22;16223;47.966;-1.616;2023-02-28T01:53:37;-0.3;83
29173;DHT22;16223;47.966;-1.616;2023-02-28T01:54:36;-0.3;83
29173;DHT22;16223;47.966;-1.616;2023-02-28T01:55:34;-0.3;83
29173;DHT22;16223;47.966;-1.616;2023-02-28T01:56:35;-0.3;83
29173;DHT22;16223;47.966;-1.616;2023-02-28T01:57:37;-0.3;83
29173;DHT22;16223;47.966;-1.616;2023-02-28T01:58:34;-0.9;84
29173;DHT22;16223;47.966;-1.616;2023-02-28T01:59:37;-0.9;84
29173;DHT22;16223;47.966;-1.616;2023-02-28T02:00:44;-0.9;84
29173;DHT22;16223;47.966;-1.616;2023-02-28T02:01:34;-0.9;84
29173;DHT22;16223;47.966;-1.616;2023-02-28T02:02:34;-0.9;84
29173;DHT22;16223;47.966;-1.616;2023-02-28T02:03:34;-0.9;84
29173;DHT22;16223;47.966;-1.616;2023-02-28T02:04:37;-0.9;84
29173;DHT22;16223;47.966;-1.616;2023-02-28T02:05:35;-0.9;84
29173;DHT22;16223;47.966;-1.616;2023-02-28T02:06:38;-0.9;84
29173;DHT22;16223;47.966;-1.616;2023-02-28T02:07:36;-0.9;84
29173;DHT22;16223;47.966;-1.616;2023-02-28T02:08:34;-0.9;84
29173;DHT22;16223;47.966;-1.616;2023-02-28T02:09:34;-0.9;84
29173;DHT22;16223;47.966;-1.616;2023-02-28T02:10:36;-0.9;84
29173;DHT22;16223;47.966;-1.616;2023-02-28T02:11:34;-0.9;84
29173;DHT22;16223;47.966;-1.616;2023-02-28T02:12:45;-0.9;84
29173;DHT22;16223;47.966;-1.616;2023-02-28T02:13:44;-0.9;84
29173;DHT22;16223;47.966;-1.616;2023-02-28T02:14:44;-0.9;84
29173;DHT22;16223;47.966;-1.616;2023-02-28T02:15:37;-0.9;84
29173;DHT22;16223;47.966;-1.616;2023-02-28T02:16:53;-0.9;84
29173;DHT22;16223;47.966;-1.616;2023-02-28T02:17:37;-0.9;84
29173;DHT22;16223;47.966;-1.616;2023-02-28T02:18:38;-0.9;84
29173;DHT22;16223;47.966;-1.616;2023-02-28T02:19:54;-1.2;85
29173;DHT22;16223;47.966;-1.616;2023-02-28T02:20:46;-1.2;85
29173;DHT22;16223;47.966;-1.616;2023-02-28T02:21:54;-1.2;85
29173;DHT22;16223;47.966;-1.616;2023-02-28T02:25:29;-1.2;85
29173;DHT22;16223;47.966;-1.616;2023-02-28T02:27:40;-1.2;85
29173;DHT22;16223;47.966;-1.616;2023-02-28T02:28:35;-1.2;85
29173;DHT22;16223;47.966;-1.616;2023-02-28T02:29:48;-1.2;85
29173;DHT22;16223;47.966;-1.616;2023-02-28T02:30:43;-1.2;85
29173;DHT22;16223;47.966;-1.616;2023-02-28T02:31:45;-1.2;85
29173;DHT22;16223;47.966;-1.616;2023-02-28T02:33:42;-1.2;85
29173;DHT22;16223;47.966;-1.616;2023-02-28T02:34:31;-1.2;85
29173;DHT22;16223;47.966;-1.616;2023-02-28T02:35:27;-1.2;85
29173;DHT22;16223;47.966;-1.616;2023-02-28T02:36:25;-1.2;85
29173;DHT22;16223;47.966;-1.616;2023-02-28T02:37:29;-1.2;85
29173;DHT22;16223;47.966;-1.616;2023-02-28T02:38:32;-1.2;85
29173;DHT22;16223;47.966;-1.616;2023-02-28T02:39:30;-1.2;85
29173;DHT22;16223;47.966;-1.616;2023-02-28T02:40:27;-1.2;85
29173;DHT22;16223;47.966;-1.616;2023-02-28T02:41:28;-1.2;85
29173;DHT22;16223;47.966;-1.616;2023-02-28T02:42:29;-1.2;85
29173;DHT22;16223;47.966;-1.616;2023-02-28T02:43:29;-1.2;85
29173;DHT22;16223;47.966;-1.616;2023-02-28T02:44:26;-1.2;85
29173;DHT22;16223;47.966;-1.616;2023-02-28T02:45:28;-1.2;85
29173;DHT22;16223;47.966;-1.616;2023-02-28T02:46:28;-1.2;85
29173;DHT22;16223;47.966;-1.616;2023-02-28T02:48:14;-1.2;85
29173;DHT22;16223;47.966;-1.616;2023-02-28T02:49:13;-1.2;85
29173;DHT22;16223;47.966;-1.616;2023-02-28T02:50:15;-1.2;85
29173;DHT22;16223;47.966;-1.616;2023-02-28T02:51:15;-1.4;86
29173;DHT22;16223;47.966;-1.616;2023-02-28T02:52:12;-1.4;86
29173;DHT22;16223;47.966;-1.616;2023-02-28T02:53:11;-1.4;86
29173;DHT22;16223;47.966;-1.616;2023-02-28T02:54:13;-1.4;86
29173;DHT22;16223;47.966;-1.616;2023-02-28T02:55:13;-1.4;86
29173;DHT22;16223;47.966;-1.616;2023-02-28T02:56:11;-1.4;86
29173;DHT22;16223;47.966;-1.616;2023-02-28T02:57:15;-1.4;86
29173;DHT22;16223;47.966;-1.616;2023-02-28T02:58:13;-1.4;86
29173;DHT22;16223;47.966;-1.616;2023-02-28T02:59:16;-1.4;86
29173;DHT22;16223;47.966;-1.616;2023-02-28T03:00:13;-1.4;86
29173;DHT22;16223;47.966;-1.616;2023-02-28T03:01:14;-1.4;86
29173;DHT22;16223;47.966;-1.616;2023-02-28T03:02:13;-1.4;86
29173;DHT22;16223;47.966;-1.616;2023-02-28T03:03:12;-1.4;86
29173;DHT22;16223;47.966;-1.616;2023-02-28T03:04:13;-1.4;86
29173;DHT22;16223;47.966;-1.616;2023-02-28T03:05:17;-1.4;86
29173;DHT22;16223;47.966;-1.616;2023-02-28T03:06:11;-1.4;86
29173;DHT22;16223;47.966;-1.616;2023-02-28T03:07:10;-1.4;86
29173;DHT22;16223;47.966;-1.616;2023-02-28T03:08:10;-1.4;86
29173;DHT22;16223;47.966;-1.616;2023-02-28T03:09:10;-1.4;86
29173;DHT22;16223;47.966;-1.616;2023-02-28T03:10:45;-1.4;86
29173;DHT22;16223;47.966;-1.616;2023-02-28T03:11:14;-1.4;86
29173;DHT22;16223;47.966;-1.616;2023-02-28T03:12:14;-1.4;86
29173;DHT22;16223;47.966;-1.616;2023-02-28T03:14:25;-1.4;86
29173;DHT22;16223;47.966;-1.616;2023-02-28T03:15:16;-1.5;87
29173;DHT22;16223;47.966;-1.616;2023-02-28T03:16:36;-1.5;87
29173;DHT22;16223;47.966;-1.616;2023-02-28T03:17:27;-1.5;87
29173;DHT22;16223;47.966;-1.616;2023-02-28T03:18:13;-1.5;87
29173;DHT22;16223;47.966;-1.616;2023-02-28T03:19:30;-1.5;87
29173;DHT22;16223;47.966;-1.616;2023-02-28T03:20:19;-1.5;87
29173;DHT22;16223;47.966;-1.616;2023-02-28T03:21:18;-1.5;87
29173;DHT22;16223;47.966;-1.616;2023-02-28T03:22:21;-1.5;87
29173;DHT22;16223;47.966;-1.616;2023-02-28T03:23:16;-1.5;87
29173;DHT22;16223;47.966;-1.616;2023-02-28T03:24:14;-1.5;87
29173;DHT22;16223;47.966;-1.616;2023-02-28T03:25:16;-1.5;87
29173;DHT22;16223;47.966;-1.616;2023-02-28T03:26:17;-1.5;87
29173;DHT22;16223;47.966;-1.616;2023-02-28T03:27:15;-1.5;87
29173;DHT22;16223;47.966;-1.616;2023-02-28T03:28:15;-1.5;87
29173;DHT22;16223;47.966;-1.616;2023-02-28T03:29:16;-1.5;87
29173;DHT22;16223;47.966;-1.616;2023-02-28T03:30:15;-1.5;87
29173;DHT22;16223;47.966;-1.616;2023-02-28T03:31:15;-1.5;87
29173;DHT22;16223;47.966;-1.616;2023-02-28T03:32:16;-1.5;87
29173;DHT22;16223;47.966;-1.616;2023-02-28T03:33:14;-1.5;87
29173;DHT22;16223;47.966;-1.616;2023-02-28T03:34:14;-1.5;87
29173;DHT22;16223;47.966;-1.616;2023-02-28T03:35:18;-1.5;87
29173;DHT22;16223;47.966;-1.616;2023-02-28T03:36:13;-1.5;87
29173;DHT22;16223;47.966;-1.616;2023-02-28T03:37:15;-1.5;87
29173;DHT22;16223;47.966;-1.616;2023-02-28T03:38:13;-1.5;87
29173;DHT22;16223;47.966;-1.616;2023-02-28T03:39:13;-1.5;87
29173;DHT22;16223;47.966;-1.616;2023-02-28T03:40:14;-1.5;87
29173;DHT22;16223;47.966;-1.616;2023-02-28T03:41:16;-1.5;87
29173;DHT22;16223;47.966;-1.616;2023-02-28T03:42:14;-1.5;87
29173;DHT22;16223;47.966;-1.616;2023-02-28T03:43:15;-1.5;87
29173;DHT22;16223;47.966;-1.616;2023-02-28T03:44:14;-1.5;87
29173;DHT22;16223;47.966;-1.616;2023-02-28T03:45:15;-1.5;87
29173;DHT22;16223;47.966;-1.616;2023-02-28T03:46:12;-1.5;87
29173;DHT22;16223;47.966;-1.616;2023-02-28T03:47:13;-1.5;87
29173;DHT22;16223;47.966;-1.616;2023-02-28T03:48:15;-1.5;87
29173;DHT22;16223;47.966;-1.616;2023-02-28T03:49:14;-1.5;87
29173;DHT22;16223;47.966;-1.616;2023-02-28T03:50:16;-1.5;87
29173;DHT22;16223;47.966;-1.616;2023-02-28T03:51:14;-1.5;87
29173;DHT22;16223;47.966;-1.616;2023-02-28T03:52:10;-1.5;87
29173;DHT22;16223;47.966;-1.616;2023-02-28T03:53:13;-1.5;87
29173;DHT22;16223;47.966;-1.616;2023-02-28T03:54:13;-1.5;87
29173;DHT22;16223;47.966;-1.616;2023-02-28T03:55:12;-1.5;87
29173;DHT22;16223;47.966;-1.616;2023-02-28T03:56:15;-1.5;87
29173;DHT22;16223;47.966;-1.616;2023-02-28T03:57:15;-1.5;87
29173;DHT22;16223;47.966;-1.616;2023-02-28T03:58:15;-1.5;87
29173;DHT22;16223;47.966;-1.616;2023-02-28T03:59:15;-1.5;87
29173;DHT22;16223;47.966;-1.616;2023-02-28T04:00:15;-1.5;87
29173;DHT22;16223;47.966;-1.616;2023-02-28T04:01:13;-1.5;87
29173;DHT22;16223;47.966;-1.616;2023-02-28T04:02:11;-1.5;87
29173;DHT22;16223;47.966;-1.616;2023-02-28T04:03:10;-1.5;87
29173;DHT22;16223;47.966;-1.616;2023-02-28T04:04:11;-1.5;87
29173;DHT22;16223;47.966;-1.616;2023-02-28T04:05:11;-1.5;87
29173;DHT22;16223;47.966;-1.616;2023-02-28T04:06:16;-1.5;87
29173;DHT22;16223;47.966;-1.616;2023-02-28T04:07:11;-1.9;87
29173;DHT22;16223;47.966;-1.616;2023-02-28T04:08:10;-1.9;87
29173;DHT22;16223;47.966;-1.616;2023-02-28T04:09:13;-1.9;87
29173;DHT22;16223;47.966;-1.616;2023-02-28T04:10:11;-1.9;87
29173;DHT22;16223;47.966;-1.616;2023-02-28T04:11:20;-1.9;87
29173;DHT22;16223;47.966;-1.616;2023-02-28T04:12:11;-1.9;88
29173;DHT22;16223;47.966;-1.616;2023-02-28T04:13:11;-1.9;88
29173;DHT22;16223;47.966;-1.616;2023-02-28T04:14:12;-1.9;88
29173;DHT22;16223;47.966;-1.616;2023-02-28T04:16:09;-1.9;88
29173;DHT22;16223;47.966;-1.616;2023-02-28T04:17:06;-1.9;88
29173;DHT22;16223;47.966;-1.616;2023-02-28T04:18:05;-1.9;88
29173;DHT22;16223;47.966;-1.616;2023-02-28T04:19:07;-1.9;88
29173;DHT22;16223;47.966;-1.616;2023-02-28T04:20:07;-1.9;88
29173;DHT22;16223;47.966;-1.616;2023-02-28T04:21:15;-1.9;88
29173;DHT22;16223;47.966;-1.616;2023-02-28T04:22:07;-1.9;88
29173;DHT22;16223;47.966;-1.616;2023-02-28T04:23:06;-1.9;88
29173;DHT22;16223;47.966;-1.616;2023-02-28T04:25:01;-1.9;88
29173;DHT22;16223;47.966;-1.616;2023-02-28T04:26:00;-1.9;88
29173;DHT22;16223;47.966;-1.616;2023-02-28T04:27:01;-1.9;88
29173;DHT22;16223;47.966;-1.616;2023-02-28T04:28:00;-1.9;88
29173;DHT22;16223;47.966;-1.616;2023-02-28T04:29:01;-1.9;88
29173;DHT22;16223;47.966;-1.616;2023-02-28T04:30:00;-1.9;88
29173;DHT22;16223;47.966;-1.616;2023-02-28T04:31:01;-1.9;88
29173;DHT22;16223;47.966;-1.616;2023-02-28T04:32:01;-1.9;88
29173;DHT22;16223;47.966;-1.616;2023-02-28T04:33:00;-1.9;88
29173;DHT22;16223;47.966;-1.616;2023-02-28T04:34:01;-1.9;88
29173;DHT22;16223;47.966;-1.616;2023-02-28T04:35:00;-1.9;88
29173;DHT22;16223;47.966;-1.616;2023-02-28T04:36:01;-1.9;88
29173;DHT22;16223;47.966;-1.616;2023-02-28T04:37:01;-1.9;88
29173;DHT22;16223;47.966;-1.616;2023-02-28T04:38:00;-1.9;88
29173;DHT22;16223;47.966;-1.616;2023-02-28T04:39:00;-1.9;88
29173;DHT22;16223;47.966;-1.616;2023-02-28T04:40:01;-1.9;88
29173;DHT22;16223;47.966;-1.616;2023-02-28T04:41:00;-1.9;88
29173;DHT22;16223;47.966;-1.616;2023-02-28T04:42:00;-1.9;88
29173;DHT22;16223;47.966;-1.616;2023-02-28T04:43:00;-1.9;88
29173;DHT22;16223;47.966;-1.616;2023-02-28T04:44:00;-1.9;88
29173;DHT22;16223;47.966;-1.616;2023-02-28T04:45:00;-1.9;88
29173;DHT22;16223;47.966;-1.616;2023-02-28T04:46:02;-1.9;88
29173;DHT22;16223;47.966;-1.616;2023-02-28T04:47:00;-1.9;88
29173;DHT22;16223;47.966;-1.616;2023-02-28T04:48:00;-1.9;88
29173;DHT22;16223;47.966;-1.616;2023-02-28T04:49:01;-1.9;88
29173;DHT22;16223;47.966;-1.616;2023-02-28T04:50:00;-1.9;88
29173;DHT22;16223;47.966;-1.616;2023-02-28T04:51:13;-1.9;88
29173;DHT22;16223;47.966;-1.616;2023-02-28T04:52:00;-1.9;88
29173;DHT22;16223;47.966;-1.616;2023-02-28T04:52:59;-1.9;88
29173;DHT22;16223;47.966;-1.616;2023-02-28T04:54:00;-1.9;88
29173;DHT22;16223;47.966;-1.616;2023-02-28T04:54:59;-1.9;88
29173;DHT22;16223;47.966;-1.616;2023-02-28T04:56:01;-1.9;88
29173;DHT22;16223;47.966;-1.616;2023-02-28T04:57:00;-1.9;88
29173;DHT22;16223;47.966;-1.616;2023-02-28T04:58:00;-1.9;88
29173;DHT22;16223;47.966;-1.616;2023-02-28T04:59:00;-1.9;88
29173;DHT22;16223;47.966;-1.616;2023-02-28T05:00:00;-1.9;88
29173;DHT22;16223;47.966;-1.616;2023-02-28T05:01:04;-1.9;88
29173;DHT22;16223;47.966;-1.616;2023-02-28T05:02:00;-1.9;88
29173;DHT22;16223;47.966;-1.616;2023-02-28T05:03:00;-1.9;88
29173;DHT22;16223;47.966;-1.616;2023-02-28T05:04:02;-1.9;88
29173;DHT22;16223;47.966;-1.616;2023-02-28T05:05:00;-1.9;88
29173;DHT22;16223;47.966;-1.616;2023-02-28T05:05:59;-1.9;88
29173;DHT22;16223;47.966;-1.616;2023-02-28T05:07:00;-1.9;88
29173;DHT22;16223;47.966;-1.616;2023-02-28T05:08:00;-1.9;88
29173;DHT22;16223;47.966;-1.616;2023-02-28T05:09:00;-1.9;88
29173;DHT22;16223;47.966;-1.616;2023-02-28T05:10:00;-1.9;88
29173;DHT22;16223;47.966;-1.616;2023-02-28T05:11:00;-1.6;87
29173;DHT22;16223;47.966;-1.616;2023-02-28T05:12:00;-1.6;87
29173;DHT22;16223;47.966;-1.616;2023-02-28T05:13:00;-1.6;87
29173;DHT22;16223;47.966;-1.616;2023-02-28T05:14:00;-1.6;87
29173;DHT22;16223;47.966;-1.616;2023-02-28T05:14:59;-1.6;87
29173;DHT22;16223;47.966;-1.616;2023-02-28T05:16:00;-1.6;87
29173;DHT22;16223;47.966;-1.616;2023-02-28T05:17:01;-1.6;87
29173;DHT22;16223;47.966;-1.616;2023-02-28T05:18:01;-1.6;87
29173;DHT22;16223;47.966;-1.616;2023-02-28T05:19:01;-1.6;87
29173;DHT22;16223;47.966;-1.616;2023-02-28T05:19:59;-1.6;87
29173;DHT22;16223;47.966;-1.616;2023-02-28T05:21:02;-1.6;87
29173;DHT22;16223;47.966;-1.616;2023-02-28T05:22:01;-1.6;87
29173;DHT22;16223;47.966;-1.616;2023-02-28T05:23:01;-1.6;87
29173;DHT22;16223;47.966;-1.616;2023-02-28T05:24:03;-1.6;87
29173;DHT22;16223;47.966;-1.616;2023-02-28T05:25:01;-1.6;87
29173;DHT22;16223;47.966;-1.616;2023-02-28T05:26:00;-1.6;87
29173;DHT22;16223;47.966;-1.616;2023-02-28T05:27:00;-1.6;87
29173;DHT22;16223;47.966;-1.616;2023-02-28T05:27:59;-1.6;87
29173;DHT22;16223;47.966;-1.616;2023-02-28T05:29:00;-1.6;87
29173;DHT22;16223;47.966;-1.616;2023-02-28T05:30:00;-1.6;87
29173;DHT22;16223;47.966;-1.616;2023-02-28T05:31:00;-1.6;87
29173;DHT22;16223;47.966;-1.616;2023-02-28T05:32:00;-1.6;87
29173;DHT22;16223;47.966;-1.616;2023-02-28T05:33:00;-1.6;87
29173;DHT22;16223;47.966;-1.616;2023-02-28T05:34:01;-1.6;87
29173;DHT22;16223;47.966;-1.616;2023-02-28T05:35:00;-1.6;87
29173;DHT22;16223;47.966;-1.616;2023-02-28T05:35:59;-1.6;87
29173;DHT22;16223;47.966;-1.616;2023-02-28T05:37:00;-1.6;87
29173;DHT22;16223;47.966;-1.616;2023-02-28T05:38:00;-1.6;87
29173;DHT22;16223;47.966;-1.616;2023-02-28T05:39:00;-1.6;87
29173;DHT22;16223;47.966;-1.616;2023-02-28T05:40:01;-1.6;87
29173;DHT22;16223;47.966;-1.616;2023-02-28T05:41:04;-1.6;87
29173;DHT22;16223;47.966;-1.616;2023-02-28T05:42:00;-1.6;87
29173;DHT22;16223;47.966;-1.616;2023-02-28T05:43:00;-1.6;87
29173;DHT22;16223;47.966;-1.616;2023-02-28T05:43:59;-1.6;87
29173;DHT22;16223;47.966;-1.616;2023-02-28T05:45:00;-1.6;87
29173;DHT22;16223;47.966;-1.616;2023-02-28T05:46:02;-1.6;87
29173;DHT22;16223;47.966;-1.616;2023-02-28T05:47:00;-1.6;87
29173;DHT22;16223;47.966;-1.616;2023-02-28T05:47:59;-1.6;87
29173;DHT22;16223;47.966;-1.616;2023-02-28T05:49:01;-1.6;87
29173;DHT22;16223;47.966;-1.616;2023-02-28T05:50:00;-1.6;87
29173;DHT22;16223;47.966;-1.616;2023-02-28T05:51:01;-1.6;87
29173;DHT22;16223;47.966;-1.616;2023-02-28T05:52:01;-1.6;87
29173;DHT22;16223;47.966;-1.616;2023-02-28T05:53:00;-1.6;87
29173;DHT22;16223;47.966;-1.616;2023-02-28T05:54:02;-1.6;87
29173;DHT22;16223;47.966;-1.616;2023-02-28T05:55:00;-1.6;87
29173;DHT22;16223;47.966;-1.616;2023-02-28T05:56:00;-1.6;87
29173;DHT22;16223;47.966;-1.616;2023-02-28T05:57:00;-1.6;87
29173;DHT22;16223;47.966;-1.616;2023-02-28T05:58:00;-1.6;87
29173;DHT22;16223;47.966;-1.616;2023-02-28T05:59:00;-1.6;87
29173;DHT22;16223;47.966;-1.616;2023-02-28T06:00:00;-1.6;87
29173;DHT22;16223;47.966;-1.616;2023-02-28T06:01:00;-1.6;87
29173;DHT22;16223;47.966;-1.616;2023-02-28T06:02:00;-1.6;87
29173;DHT22;16223;47.966;-1.616;2023-02-28T06:03:00;-1.6;87
29173;DHT22;16223;47.966;-1.616;2023-02-28T06:04:01;-1.6;87
29173;DHT22;16223;47.966;-1.616;2023-02-28T06:05:00;-1.6;87
29173;DHT22;16223;47.966;-1.616;2023-02-28T06:06:01;-1.6;87
29173;DHT22;16223;47.966;-1.616;2023-02-28T06:07:00;-1.6;87
29173;DHT22;16223;47.966;-1.616;2023-02-28T06:08:00;-1.6;87
29173;DHT22;16223;47.966;-1.616;2023-02-28T06:09:00;-1.6;87
29173;DHT22;16223;47.966;-1.616;2023-02-28T06:09:59;-1.6;87
29173;DHT22;16223;47.966;-1.616;2023-02-28T06:11:02;-2.2;88
29173;DHT22;16223;47.966;-1.616;2023-02-28T06:12:02;-2.2;88
29173;DHT22;16223;47.966;-1.616;2023-02-28T06:13:02;-2.2;88
29173;DHT22;16223;47.966;-1.616;2023-02-28T06:14:01;-2.2;88
29173;DHT22;16223;47.966;-1.616;2023-02-28T06:15:00;-2.2;88
29173;DHT22;16223;47.966;-1.616;2023-02-28T06:16:02;-2.2;88
29173;DHT22;16223;47.966;-1.616;2023-02-28T06:17:01;-2.2;88
29173;DHT22;16223;47.966;-1.616;2023-02-28T06:18:00;-2.2;88
29173;DHT22;16223;47.966;-1.616;2023-02-28T06:19:02;-2.2;88
29173;DHT22;16223;47.966;-1.616;2023-02-28T06:20:00;-2.2;88
29173;DHT22;16223;47.966;-1.616;2023-02-28T06:21:00;-2.2;88
29173;DHT22;16223;47.966;-1.616;2023-02-28T06:22:00;-2.2;88
29173;DHT22;16223;47.966;-1.616;2023-02-28T06:23:00;-2.2;88
29173;DHT22;16223;47.966;-1.616;2023-02-28T06:24:01;-2.2;88
29173;DHT22;16223;47.966;-1.616;2023-02-28T06:25:00;-2.2;88
29173;DHT22;16223;47.966;-1.616;2023-02-28T06:26:00;-2.2;88
29173;DHT22;16223;47.966;-1.616;2023-02-28T06:27:00;-2.2;88
29173;DHT22;16223;47.966;-1.616;2023-02-28T06:28:00;-2.2;88
29173;DHT22;16223;47.966;-1.616;2023-02-28T06:29:01;-2.2;88
29173;DHT22;16223;47.966;-1.616;2023-02-28T06:30:00;-2.2;88
29173;DHT22;16223;47.966;-1.616;2023-02-28T06:31:04;-2.2;88
29173;DHT22;16223;47.966;-1.616;2023-02-28T06:32:00;-2.2;88
29173;DHT22;16223;47.966;-1.616;2023-02-28T06:33:00;-2.2;88
29173;DHT22;16223;47.966;-1.616;2023-02-28T06:34:00;-2.2;88
29173;DHT22;16223;47.966;-1.616;2023-02-28T06:35:00;-2.2;88
29173;DHT22;16223;47.966;-1.616;2023-02-28T06:36:00;-2.2;88
29173;DHT22;16223;47.966;-1.616;2023-02-28T06:37:00;-2.2;88
29173;DHT22;16223;47.966;-1.616;2023-02-28T06:38:01;-2.2;88
29173;DHT22;16223;47.966;-1.616;2023-02-28T06:39:00;-2.2;88
29173;DHT22;16223;47.966;-1.616;2023-02-28T06:40:00;-2.2;88
29173;DHT22;16223;47.966;-1.616;2023-02-28T06:41:01;-2.2;88
29173;DHT22;16223;47.966;-1.616;2023-02-28T06:42:00;-2.2;88
29173;DHT22;16223;47.966;-1.616;2023-02-28T06:43:01;-2.2;88
29173;DHT22;16223;47.966;-1.616;2023-02-28T06:44:00;-2.2;88
29173;DHT22;16223;47.966;-1.616;2023-02-28T06:45:00;-2.2;88
29173;DHT22;16223;47.966;-1.616;2023-02-28T06:46:03;-2.2;88
29173;DHT22;16223;47.966;-1.616;2023-02-28T06:47:00;-2.2;88